Time;durP1;ratioP1;P1;durP2;ratioP2;P2;SDS_P1;SDS_P2;PMS_P1;PMS_P2;Temp;Humidity;BMP_temperature;BMP_pressure;BME280_temperature;BME280_humidity;BME280_pressure;Samples;Min_cycle;Max_cycle;Signal;HPM_P1;HPM_P2
2023/11/04 00:02:26;;;;;;;4.43;2.78;;;;;;;;;;6205050;28;20852;-94
2023/11/04 00:05:29;;;;;;;8.38;3.25;;;;;;;;;;6218820;28;20118;-96
2023/11/04 00:08:31;;;;;;;6.57;3.28;;;;;;;;;;6224252;28;20054;-93
2023/11/04 00:11:33;;;;;;;3.70;2.88;;;;;;;;;;6217871;28;20042;-96
2023/11/04 00:14:36;;;;;;;6.57;3.10;;;;;;;;;;6222150;28;20238;-91
2023/11/04 00:17:38;;;;;;;6.33;3.20;;;;;;;;;;6223541;28;20053;-94
2023/11/04 00:20:42;;;;;;;7.18;2.92;;;;;;;;;;6224312;28;20634;-95
2023/11/04 00:23:44;;;;;;;234.23;83.18;;;;;;;;;;6231995;28;20054;-96
2023/11/04 00:26:46;;;;;;;68.45;24.98;;;;;;;;;;6230109;28;20065;-95
2023/11/04 00:29:48;;;;;;;47.38;18.88;;;;;;;;;;6225378;28;20080;-94
2023/11/04 00:32:50;;;;;;;31.88;14.38;;;;;;;;;;6227231;28;20057;-95
2023/11/04 00:35:54;;;;;;;53.17;23.40;;;;;;;;;;6197051;28;20045;-96
2023/11/04 00:39:17;;;;;;;6.93;4.20;;;;;;;;;;6219849;28;20050;-93
2023/11/04 00:42:19;;;;;;;7.13;4.05;;;;;;;;;;6221264;28;20058;-94
2023/11/04 00:45:21;;;;;;;18.77;10.70;;;;;;;;;;6228133;28;20046;-95
2023/11/04 00:48:23;;;;;;;10.95;6.22;;;;;;;;;;6227291;28;20064;-96
2023/11/04 00:51:36;;;;;;;6.07;3.30;;;;;;;;;;6224955;28;20137;-96
2023/11/04 00:54:56;;;;;;;4.57;2.90;;;;;;;;;;6128977;28;20042;-96
2023/11/04 00:57:58;;;;;;;8.30;3.67;;;;;;;;;;6220275;28;20369;-94
2023/11/04 01:01:00;;;;;;;5.10;3.15;;;;;;;;;;6211163;28;20064;-96
2023/11/04 01:04:02;;;;;;;5.65;3.40;;;;;;;;;;6222897;28;20108;-95
2023/11/04 01:10:21;;;;;;;7.82;2.95;;;;;;;;;;6187494;28;20096;-95
2023/11/04 01:13:24;;;;;;;5.18;3.10;;;;;;;;;;6201855;28;20050;-96
2023/11/04 01:16:26;;;;;;;3.70;2.78;;;;;;;;;;6215243;28;20632;-96
2023/11/04 01:19:29;;;;;;;6.95;3.40;;;;;;;;;;6226031;28;20760;-96
2023/11/04 01:22:32;;;;;;;5.63;3.30;;;;;;;;;;6213311;28;20121;-96
2023/11/04 01:25:35;;;;;;;6.55;3.22;;;;;;;;;;6222238;28;20113;-96
2023/11/04 01:28:38;;;;;;;5.10;3.63;;;;;;;;;;6218100;28;20050;-96
2023/11/04 01:31:40;;;;;;;6.53;3.53;;;;;;;;;;6201812;28;20057;-96
2023/11/04 01:34:48;;;;;;;4.88;3.20;;;;;;;;;;6219711;28;20057;-95
2023/11/04 01:37:51;;;;;;;6.53;3.42;;;;;;;;;;6207796;28;20054;-96
2023/11/04 01:44:18;;;;;;;6.00;3.30;;;;;;;;;;6185556;28;20054;-96
2023/11/04 01:47:23;;;;;;;6.00;3.95;;;;;;;;;;6222842;28;20057;-96
2023/11/04 01:50:27;;;;;;;6.13;3.22;;;;;;;;;;6221578;28;20046;-95
2023/11/04 01:53:40;;;;;;;6.78;3.65;;;;;;;;;;6215580;28;20049;-96
2023/11/04 01:56:44;;;;;;;5.63;3.05;;;;;;;;;;6215388;28;20121;-96
2023/11/04 01:59:47;;;;;;;4.57;2.92;;;;;;;;;;6219762;28;20102;-96
2023/11/04 02:02:49;;;;;;;5.43;3.00;;;;;;;;;;6207861;28;20057;-95
2023/11/04 02:05:51;;;;;;;4.30;2.85;;;;;;;;;;6214813;28;20382;-96
2023/11/04 02:12:11;;;;;;;5.07;3.05;;;;;;;;;;6208139;28;20046;-95
2023/11/04 02:15:16;;;;;;;4.60;2.63;;;;;;;;;;6200549;28;20053;-96
2023/11/04 02:18:18;;;;;;;5.90;2.80;;;;;;;;;;6217717;28;20049;-96
2023/11/04 02:21:23;;;;;;;5.38;3.30;;;;;;;;;;6218741;28;20046;-95
2023/11/04 02:28:24;;;;;;;4.90;3.00;;;;;;;;;;6211226;28;20115;-96
2023/11/04 02:31:26;;;;;;;7.70;3.17;;;;;;;;;;6211998;28;20053;-95
2023/11/04 02:34:28;;;;;;;5.22;3.25;;;;;;;;;;6219489;28;20058;-95
2023/11/04 02:40:48;;;;;;;5.65;2.75;;;;;;;;;;6202617;28;20049;-96
2023/11/04 02:43:50;;;;;;;4.53;2.78;;;;;;;;;;6214302;28;20107;-95
2023/11/04 02:46:52;;;;;;;5.60;3.35;;;;;;;;;;6216628;28;20087;-94
2023/11/04 02:49:54;;;;;;;7.40;2.80;;;;;;;;;;6220468;28;20062;-94
2023/11/04 02:52:58;;;;;;;5.95;2.75;;;;;;;;;;6212829;28;20110;-95
2023/11/04 02:56:00;;;;;;;4.72;2.83;;;;;;;;;;6202598;28;20341;-95
2023/11/04 02:59:02;;;;;;;5.15;3.15;;;;;;;;;;6214870;28;20069;-95
2023/11/04 03:02:04;;;;;;;4.78;2.85;;;;;;;;;;6205113;28;20060;-95
2023/11/04 03:05:07;;;;;;;5.38;2.92;;;;;;;;;;6218092;28;20125;-94
2023/11/04 03:11:27;;;;;;;4.72;2.90;;;;;;;;;;6198838;28;20333;-95
2023/11/04 03:14:29;;;;;;;5.18;2.85;;;;;;;;;;6216609;28;20686;-95
2023/11/04 03:17:31;;;;;;;5.25;2.88;;;;;;;;;;6212842;28;20173;-95
2023/11/04 03:20:33;;;;;;;4.68;2.45;;;;;;;;;;6204440;28;20046;-95
2023/11/04 03:23:36;;;;;;;4.03;2.35;;;;;;;;;;6217555;28;20105;-95
2023/11/04 03:26:39;;;;;;;4.00;2.70;;;;;;;;;;6222052;28;20318;-96
2023/11/04 03:29:41;;;;;;;5.18;2.85;;;;;;;;;;6205521;28;20110;-96
2023/11/04 03:32:43;;;;;;;4.53;2.60;;;;;;;;;;6223246;28;20046;-95
2023/11/04 03:35:46;;;;;;;6.40;3.38;;;;;;;;;;6215422;28;20054;-95
2023/11/04 03:38:49;;;;;;;4.03;2.50;;;;;;;;;;6220389;28;20057;-96
2023/11/04 03:41:51;;;;;;;6.18;3.10;;;;;;;;;;6221817;28;20105;-96
2023/11/04 03:44:53;;;;;;;4.78;2.90;;;;;;;;;;6209998;28;20313;-96
2023/11/04 03:47:57;;;;;;;7.50;2.58;;;;;;;;;;6224029;28;20061;-95
2023/11/04 03:50:59;;;;;;;5.15;2.78;;;;;;;;;;6218934;28;20053;-96
2023/11/04 03:54:03;;;;;;;5.97;2.80;;;;;;;;;;6153954;28;20062;-95
2023/11/04 03:57:05;;;;;;;10.50;2.78;;;;;;;;;;6206775;28;20242;-95
2023/11/04 04:00:11;;;;;;;4.15;2.72;;;;;;;;;;6222211;28;20125;-94
2023/11/04 04:03:13;;;;;;;6.30;3.30;;;;;;;;;;6221354;28;20073;-95
2023/11/04 04:06:17;;;;;;;5.88;3.13;;;;;;;;;;6224070;28;20056;-96
2023/11/04 04:09:20;;;;;;;;;;;;;;;;;;6222383;28;20054;-95
2023/11/04 04:12:22;;;;;;;4.85;3.03;;;;;;;;;;6221609;28;19917;-95
2023/11/04 04:15:24;;;;;;;7.22;3.03;;;;;;;;;;6221886;28;20068;-94
2023/11/04 04:18:26;;;;;;;5.93;3.13;;;;;;;;;;6210378;28;20283;-95
2023/11/04 04:21:28;;;;;;;5.72;3.45;;;;;;;;;;6226024;28;20056;-95
2023/11/04 04:24:31;;;;;;;4.63;3.10;;;;;;;;;;6223443;28;20053;-96
2023/11/04 04:27:33;;;;;;;5.13;2.80;;;;;;;;;;6224374;28;20117;-95
2023/11/04 04:30:35;;;;;;;4.28;3.30;;;;;;;;;;6211269;28;20523;-95
2023/11/04 04:33:37;;;;;;;9.00;3.30;;;;;;;;;;6219476;28;20356;-96
2023/11/04 04:52:52;;;;;;;4.75;2.80;;;;;;;;;;6082132;28;20055;-96
2023/11/04 04:55:54;;;;;;;6.97;3.40;;;;;;;;;;6157859;28;20343;-95
2023/11/04 04:58:56;;;;;;;6.28;2.90;;;;;;;;;;6168884;28;20067;-96
2023/11/04 05:01:58;;;;;;;4.90;2.90;;;;;;;;;;6150636;28;20067;-96
2023/11/04 05:05:00;;;;;;;5.22;3.13;;;;;;;;;;6148729;28;20384;-95
2023/11/04 05:11:24;;;;;;;3.13;2.22;;;;;;;;;;6148937;28;20046;-96
2023/11/04 05:14:26;;;;;;;4.38;2.85;;;;;;;;;;6152569;28;20051;-95
2023/11/04 05:17:28;;;;;;;4.75;2.38;;;;;;;;;;6149775;28;20098;-93
2023/11/04 05:20:30;;;;;;;3.97;2.30;;;;;;;;;;6149218;28;20063;-96
2023/11/04 05:23:33;;;;;;;4.75;3.08;;;;;;;;;;6147009;28;20050;-93
2023/11/04 05:26:39;;;;;;;4.88;2.38;;;;;;;;;;6151992;28;20053;-96
2023/11/04 05:29:41;;;;;;;5.40;2.63;;;;;;;;;;6150914;29;20062;-96
2023/11/04 05:32:44;;;;;;;5.28;2.65;;;;;;;;;;6148649;28;20071;-96
2023/11/04 05:35:46;;;;;;;4.50;2.65;;;;;;;;;;6152369;28;20059;-95
2023/11/04 05:45:58;;;;;;;4.68;2.67;;;;;;;;;;6107743;28;20050;-95
2023/11/04 05:49:00;;;;;;;4.18;2.47;;;;;;;;;;6188318;28;20085;-96
2023/11/04 05:52:02;;;;;;;4.57;2.20;;;;;;;;;;6190309;28;20054;-96
2023/11/04 05:58:22;;;;;;;7.00;2.70;;;;;;;;;;6174825;28;20043;-96
2023/11/04 06:01:25;;;;;;;4.82;2.50;;;;;;;;;;6194737;28;20058;-96
2023/11/04 06:04:27;;;;;;;3.78;2.50;;;;;;;;;;6194235;28;20053;-95
2023/11/04 06:07:29;;;;;;;5.45;3.10;;;;;;;;;;6195825;28;20061;-96
2023/11/04 06:10:33;;;;;;;3.42;2.30;;;;;;;;;;6194719;28;20065;-96
2023/11/04 06:13:55;;;;;;;3.17;2.08;;;;;;;;;;6167326;28;20058;-96
2023/11/04 06:16:57;;;;;;;4.32;2.50;;;;;;;;;;6191475;28;20058;-96
2023/11/04 06:19:59;;;;;;;6.80;2.72;;;;;;;;;;6193453;28;20050;-96
2023/11/04 06:23:01;;;;;;;5.32;3.00;;;;;;;;;;6198216;28;20117;-96
2023/11/04 06:26:05;;;;;;;4.78;2.38;;;;;;;;;;6190472;28;20050;-95
2023/11/04 06:29:08;;;;;;;5.63;2.90;;;;;;;;;;6194569;28;20058;-96
2023/11/04 06:32:30;;;;;;;4.70;2.90;;;;;;;;;;6180591;28;20054;-96
2023/11/04 06:35:33;;;;;;;4.90;2.60;;;;;;;;;;6194975;28;20126;-96
2023/11/04 06:38:37;;;;;;;4.43;2.80;;;;;;;;;;6182621;28;20098;-96
2023/11/04 06:45:00;;;;;;;4.38;2.83;;;;;;;;;;6186251;28;20050;-95
2023/11/04 06:48:06;;;;;;;4.28;2.38;;;;;;;;;;6173519;28;20118;-96
2023/11/04 06:51:11;;;;;;;5.63;2.88;;;;;;;;;;6195738;28;20069;-97
2023/11/04 06:54:18;;;;;;;5.88;2.83;;;;;;;;;;6159436;28;20077;-96
2023/11/04 06:57:38;;;;;;;8.20;3.00;;;;;;;;;;6183012;28;20062;-96
2023/11/04 07:00:43;;;;;;;3.97;2.15;;;;;;;;;;6176757;28;20072;-96
2023/11/04 07:03:47;;;;;;;6.25;2.78;;;;;;;;;;6180617;28;20123;-96
2023/11/04 07:06:50;;;;;;;;;;;;;;;;;;6186035;28;20055;-96
2023/11/04 07:09:56;;;;;;;4.68;2.38;;;;;;;;;;6191459;28;20110;-96
2023/11/04 07:12:59;;;;;;;6.40;2.53;;;;;;;;;;6194373;28;20044;-96
2023/11/04 07:16:04;;;;;;;5.25;2.63;;;;;;;;;;6188124;28;20278;-95
2023/11/04 07:19:25;;;;;;;6.10;2.55;;;;;;;;;;6169205;28;20514;-96
2023/11/04 07:22:27;;;;;;;4.38;2.50;;;;;;;;;;6191645;28;20118;-93
2023/11/04 07:25:34;;;;;;;4.13;2.60;;;;;;;;;;6192251;28;20114;-96
2023/11/04 07:31:54;;;;;;;4.50;2.28;;;;;;;;;;6180802;28;20054;-96
2023/11/04 07:34:58;;;;;;;4.68;2.72;;;;;;;;;;6193619;28;20062;-96
2023/11/04 07:38:00;;;;;;;4.22;2.95;;;;;;;;;;6193880;28;20065;-96
2023/11/04 07:41:02;;;;;;;6.25;3.22;;;;;;;;;;6189103;28;20061;-96
2023/11/04 07:44:06;;;;;;;7.28;2.53;;;;;;;;;;6192050;28;20101;-95
2023/11/04 07:47:08;;;;;;;;;;;;;;;;;;6190191;28;20127;-96
2023/11/04 07:50:12;;;;;;;4.78;2.70;;;;;;;;;;6193755;28;19964;-94
2023/11/04 07:53:15;;;;;;;;;;;;;;;;;;6187015;28;20053;-94
2023/11/04 07:56:17;;;;;;;4.15;2.53;;;;;;;;;;6191588;28;20180;-96
2023/11/04 08:02:37;;;;;;;4.03;2.80;;;;;;;;;;6157432;28;20046;-93
2023/11/04 08:05:40;;;;;;;5.45;2.78;;;;;;;;;;6167871;28;20675;-93
2023/11/04 08:08:42;;;;;;;4.53;2.95;;;;;;;;;;6193539;28;20265;-96
2023/11/04 08:11:46;;;;;;;5.85;3.30;;;;;;;;;;6197048;28;20054;-95
2023/11/04 08:14:49;;;;;;;7.03;3.30;;;;;;;;;;6191455;28;20122;-96
2023/11/04 08:17:54;;;;;;;8.15;3.00;;;;;;;;;;6198174;28;20245;-95
2023/11/04 08:24:12;;;;;;;6.03;3.33;;;;;;;;;;6090960;29;20060;-95
2023/11/04 08:27:15;;;;;;;6.38;3.95;;;;;;;;;;6082331;29;20348;-96
2023/11/04 08:30:22;;;;;;;5.13;2.95;;;;;;;;;;6088676;29;20048;-96
2023/11/04 08:33:24;;;;;;;5.90;3.05;;;;;;;;;;6089754;29;20079;-96
2023/11/04 08:36:28;;;;;;;4.53;2.35;;;;;;;;;;6089238;29;20119;-96
2023/11/04 08:39:33;;;;;;;3.88;2.60;;;;;;;;;;6086830;29;20084;-96
2023/11/04 08:42:36;;;;;;;6.40;2.65;;;;;;;;;;6089448;29;20064;-96
2023/11/04 08:56:28;;;;;;;367.75;31.95;;;;;;;;;;6186156;28;20055;-93
2023/11/04 08:59:30;;;;;;;12.75;2.80;;;;;;;;;;6176894;28;20067;-94
2023/11/04 09:06:05;;;;;;;7.00;2.33;;;;;;;;;;6134985;28;20059;-95
2023/11/04 09:09:09;;;;;;;5.47;2.30;;;;;;;;;;6133906;28;20054;-95
2023/11/04 09:12:11;;;;;;;5.68;2.28;;;;;;;;;;6131295;29;20051;-90
2023/11/04 09:15:14;;;;;;;5.50;2.30;;;;;;;;;;6130904;29;20082;-94
2023/11/04 09:18:18;;;;;;;4.47;2.40;;;;;;;;;;6130512;28;20055;-93
2023/11/04 09:21:21;;;;;;;11.85;2.88;;;;;;;;;;6112270;29;20044;-92
2023/11/04 09:24:24;;;;;;;6.45;2.38;;;;;;;;;;6128581;28;20059;-91
2023/11/04 09:27:28;;;;;;;4.38;2.17;;;;;;;;;;6130103;29;20151;-93
2023/11/04 09:30:30;;;;;;;6.07;1.90;;;;;;;;;;6131252;29;20067;-94
2023/11/04 09:36:50;;;;;;;3.20;1.40;;;;;;;;;;6075579;29;20151;-93
2023/11/04 09:39:53;;;;;;;5.82;1.95;;;;;;;;;;6148768;28;20055;-92
2023/11/04 09:42:55;;;;;;;7.43;2.08;;;;;;;;;;6167530;28;20054;-93
2023/11/04 09:45:57;;;;;;;5.65;2.00;;;;;;;;;;6174388;28;20060;-92
2023/11/04 09:56:44;;;;;;;4.82;1.92;;;;;;;;;;6117162;28;20066;-96
2023/11/04 09:59:56;;;;;;;3.55;1.60;;;;;;;;;;6176993;28;20057;-97
2023/11/04 10:06:46;;;;;;;4.13;2.00;;;;;;;;;;6133294;29;20052;-96
2023/11/04 10:20:29;;;;;;;3.95;1.30;;;;;;;;;;6143339;28;20046;-96
2023/11/04 10:30:42;;;;;;;3.08;1.33;;;;;;;;;;6128917;29;20083;-96
2023/11/04 10:56:02;;;;;;;3.03;1.33;;;;;;;;;;5967168;29;20123;-96
2023/11/04 10:59:09;;;;;;;9.23;1.97;;;;;;;;;;5977161;29;20370;-96
2023/11/04 11:02:16;;;;;;;2.72;1.50;;;;;;;;;;6007889;29;20037;-97
2023/11/04 11:05:22;;;;;;;4.43;1.52;;;;;;;;;;6044542;29;20060;-96
2023/11/04 11:15:06;;;;;;;3.88;1.75;;;;;;;;;;6040152;29;20129;-96
2023/11/04 11:18:11;;;;;;;2.25;1.50;;;;;;;;;;6056135;29;20078;-96
2023/11/04 11:21:14;;;;;;;5.07;1.33;;;;;;;;;;6051342;29;20061;-96
2023/11/04 11:36:19;;;;;;;;;;;;;;;;;;6105419;29;20118;-96
2023/11/04 11:42:42;;;;;;;3.40;0.98;;;;;;;;;;6102557;29;20112;-96
2023/11/04 11:45:50;;;;;;;2.42;1.27;;;;;;;;;;6033065;29;20060;-96
2023/11/04 11:52:12;;;;;;;1.75;0.80;;;;;;;;;;5966361;29;20041;-96
2023/11/04 11:55:34;;;;;;;4.65;0.98;;;;;;;;;;6059349;29;20163;-91
2023/11/04 12:02:10;;;;;;;2.33;0.85;;;;;;;;;;6223591;23;20045;-96
2023/11/04 12:08:55;;;;;;;1.85;1.08;;;;;;;;;;6234193;28;20151;-90
2023/11/04 12:12:01;;;;;;;1.90;0.80;;;;;;;;;;6248544;28;20121;-96
2023/11/04 12:15:04;;;;;;;2.28;0.93;;;;;;;;;;6250235;28;20137;-96
2023/11/04 12:18:16;;;;;;;3.45;0.95;;;;;;;;;;6246179;28;20053;-96
2023/11/04 12:28:28;;;;;;;4.07;1.40;;;;;;;;;;6196943;28;20045;-92
2023/11/04 12:31:31;;;;;;;2.63;0.82;;;;;;;;;;6221136;28;20049;-96
2023/11/04 12:34:33;;;;;;;7.28;1.98;;;;;;;;;;6247944;28;20041;-96
2023/11/04 12:37:37;;;;;;;2.30;1.15;;;;;;;;;;6249972;28;20073;-96
2023/11/04 12:40:40;;;;;;;2.00;1.13;;;;;;;;;;6250241;28;20427;-95
2023/11/04 12:44:03;;;;;;;2.58;0.90;;;;;;;;;;6214811;28;20107;-94
2023/11/04 12:47:07;;;;;;;3.85;1.27;;;;;;;;;;6248941;28;20049;-95
2023/11/04 12:50:13;;;;;;;3.38;1.42;;;;;;;;;;6249607;28;20053;-95
2023/11/04 12:53:18;;;;;;;2.33;1.30;;;;;;;;;;6233584;28;20196;-93
2023/11/04 12:56:19;;;;;;;1.90;0.90;;;;;;;;;;6251570;28;20061;-92
2023/11/04 12:59:21;;;;;;;2.88;1.15;;;;;;;;;;6246724;28;20076;-93
2023/11/04 13:02:24;;;;;;;3.25;1.35;;;;;;;;;;6244643;28;20046;-94
2023/11/04 13:05:25;;;;;;;3.58;1.75;;;;;;;;;;6250003;28;20053;-94
2023/11/04 13:08:29;;;;;;;2.55;1.50;;;;;;;;;;6253454;28;20105;-95
2023/11/04 13:11:31;;;;;;;2.40;1.50;;;;;;;;;;6246631;28;20044;-93
2023/11/04 13:14:32;;;;;;;1.90;0.90;;;;;;;;;;6249791;28;20065;-94
2023/11/04 13:17:34;;;;;;;2.40;1.33;;;;;;;;;;6248787;28;20081;-95
2023/11/04 13:20:36;;;;;;;2.47;1.00;;;;;;;;;;6252021;28;20055;-96
2023/11/04 13:23:40;;;;;;;2.10;1.10;;;;;;;;;;6249736;28;20116;-96
2023/11/04 13:26:42;;;;;;;2.60;1.10;;;;;;;;;;6248113;28;20064;-94
2023/11/04 13:29:44;;;;;;;2.47;1.63;;;;;;;;;;6245982;28;20278;-95
2023/11/04 13:32:46;;;;;;;2.60;1.15;;;;;;;;;;6245324;28;20116;-95
2023/11/04 13:35:48;;;;;;;1.77;0.93;;;;;;;;;;6245107;28;20053;-94
2023/11/04 13:38:52;;;;;;;2.08;1.08;;;;;;;;;;6251857;28;20057;-95
2023/11/04 13:41:54;;;;;;;2.25;1.02;;;;;;;;;;6220994;28;20073;-96
2023/11/04 13:44:56;;;;;;;2.72;1.60;;;;;;;;;;6247455;28;20120;-96
2023/11/04 13:47:58;;;;;;;2.35;1.30;;;;;;;;;;6248385;28;20273;-96
2023/11/04 13:51:00;;;;;;;1.92;1.25;;;;;;;;;;6246853;28;20330;-96
2023/11/04 13:54:12;;;;;;;3.53;1.27;;;;;;;;;;6250164;28;20050;-95
2023/11/04 13:57:14;;;;;;;2.28;1.30;;;;;;;;;;6215598;28;20077;-95
2023/11/04 14:00:16;;;;;;;3.80;1.20;;;;;;;;;;6246802;28;20057;-95
2023/11/04 14:03:18;;;;;;;2.03;1.00;;;;;;;;;;6245356;28;20095;-95
2023/11/04 14:06:20;;;;;;;3.38;1.23;;;;;;;;;;6245710;28;20057;-95
2023/11/04 14:09:23;;;;;;;2.83;1.35;;;;;;;;;;6244674;28;20045;-93
2023/11/04 14:12:26;;;;;;;1.98;1.20;;;;;;;;;;6244794;28;20049;-94
2023/11/04 14:15:28;;;;;;;3.53;1.40;;;;;;;;;;6216893;28;20056;-94
2023/11/04 14:18:29;;;;;;;3.53;1.33;;;;;;;;;;6231666;28;20321;-95
2023/11/04 14:21:32;;;;;;;2.55;1.10;;;;;;;;;;6248217;28;20049;-95
2023/11/04 14:24:36;;;;;;;1.52;1.00;;;;;;;;;;6247564;28;20065;-95
2023/11/04 14:27:39;;;;;;;2.40;1.48;;;;;;;;;;6222552;28;20049;-95
2023/11/04 14:30:41;;;;;;;1.98;1.23;;;;;;;;;;6246078;28;20053;-95
2023/11/04 14:33:43;;;;;;;2.40;1.23;;;;;;;;;;6245357;28;20255;-94
2023/11/04 14:36:45;;;;;;;62.20;31.70;;;;;;;;;;6215206;28;20045;-93
2023/11/04 14:39:48;;;;;;;38.20;18.77;;;;;;;;;;6245216;28;20060;-93
2023/11/04 14:42:50;;;;;;;18.00;9.13;;;;;;;;;;6246690;28;20059;-92
2023/11/04 14:45:53;;;;;;;84.45;30.88;;;;;;;;;;6224124;28;20261;-94
2023/11/04 14:48:55;;;;;;;5.00;2.70;;;;;;;;;;6245066;28;20060;-94
2023/11/04 14:51:57;;;;;;;2.22;1.40;;;;;;;;;;6228263;28;20053;-94
2023/11/04 14:55:01;;;;;;;1.83;1.20;;;;;;;;;;6227394;28;20064;-93
2023/11/04 14:58:23;;;;;;;2.20;1.43;;;;;;;;;;6239105;28;20053;-94
2023/11/04 15:01:25;;;;;;;3.38;1.27;;;;;;;;;;6243907;28;20409;-95
2023/11/04 15:04:28;;;;;;;3.75;1.80;;;;;;;;;;6249217;28;20061;-94
2023/11/04 15:07:30;;;;;;;2.45;1.40;;;;;;;;;;6244364;28;20050;-95
2023/11/04 15:10:34;;;;;;;3.53;1.35;;;;;;;;;;6242762;28;20054;-94
2023/11/04 15:13:40;;;;;;;3.72;1.75;;;;;;;;;;6242386;28;20052;-94
2023/11/04 15:16:43;;;;;;;4.57;1.27;;;;;;;;;;6244443;28;20065;-95
2023/11/04 15:19:45;;;;;;;4.30;2.40;;;;;;;;;;6228439;28;20052;-94
2023/11/04 15:22:47;;;;;;;2.47;1.48;;;;;;;;;;6230922;28;20410;-94
2023/11/04 15:25:50;;;;;;;2.65;1.60;;;;;;;;;;6252341;28;20120;-93
2023/11/04 15:28:52;;;;;;;4.05;1.90;;;;;;;;;;6248778;28;20241;-93
2023/11/04 15:31:54;;;;;;;2.83;1.65;;;;;;;;;;6248968;28;20129;-94
2023/11/04 15:34:56;;;;;;;3.22;1.85;;;;;;;;;;6250391;28;20049;-92
2023/11/04 15:37:57;;;;;;;3.03;1.67;;;;;;;;;;6231144;28;20041;-93
2023/11/04 15:44:17;;;;;;;3.03;1.70;;;;;;;;;;6242270;28;20802;-95
2023/11/04 15:47:18;;;;;;;5.25;1.90;;;;;;;;;;6247640;28;20061;-94
2023/11/04 15:50:20;;;;;;;3.72;1.88;;;;;;;;;;6254178;28;20121;-93
2023/11/04 15:53:23;;;;;;;4.18;2.30;;;;;;;;;;6248109;28;20242;-94
2023/11/04 15:59:42;;;;;;;4.65;1.88;;;;;;;;;;6226501;28;20053;-96
2023/11/04 16:02:45;;;;;;;3.38;1.95;;;;;;;;;;6253741;28;20337;-96
2023/11/04 16:05:47;;;;;;;4.68;2.00;;;;;;;;;;6235609;28;20052;-94
2023/11/04 16:08:48;;;;;;;3.47;2.03;;;;;;;;;;6233162;28;20342;-96
2023/11/04 16:11:52;;;;;;;5.32;1.98;;;;;;;;;;6243723;28;20116;-94
2023/11/04 16:14:54;;;;;;;3.22;2.30;;;;;;;;;;6216062;28;20321;-95
2023/11/04 16:17:56;;;;;;;4.13;2.47;;;;;;;;;;6248201;28;20482;-93
2023/11/04 16:21:00;;;;;;;3.03;2.10;;;;;;;;;;6251304;28;20050;-94
2023/11/04 16:24:02;;;;;;;4.00;2.40;;;;;;;;;;6235778;28;20053;-95
2023/11/04 16:27:06;;;;;;;4.15;2.75;;;;;;;;;;6233436;28;20065;-95
2023/11/04 16:30:09;;;;;;;3.72;2.05;;;;;;;;;;6250516;28;20045;-96
2023/11/04 16:33:11;;;;;;;5.65;2.38;;;;;;;;;;6244488;28;20068;-96
2023/11/04 16:36:13;;;;;;;4.50;2.40;;;;;;;;;;6249153;28;20045;-94
2023/11/04 16:39:16;;;;;;;5.35;2.45;;;;;;;;;;6250479;28;20245;-95
2023/11/04 16:45:35;;;;;;;4.13;2.15;;;;;;;;;;6222720;28;20053;-93
2023/11/04 16:48:37;;;;;;;5.53;2.13;;;;;;;;;;6245941;28;20049;-96
2023/11/04 16:51:41;;;;;;;4.90;2.75;;;;;;;;;;6248496;28;20381;-96
2023/11/04 16:54:43;;;;;;;5.28;2.55;;;;;;;;;;6248920;28;20050;-96
2023/11/04 16:57:46;;;;;;;5.30;2.80;;;;;;;;;;6227171;28;20050;-95
2023/11/04 17:00:48;;;;;;;4.22;2.80;;;;;;;;;;6230572;28;20238;-96
2023/11/04 17:03:51;;;;;;;5.55;2.80;;;;;;;;;;6202680;28;20253;-96
2023/11/04 17:06:52;;;;;;;4.68;2.55;;;;;;;;;;6249469;28;20049;-96
2023/11/04 17:09:54;;;;;;;5.93;2.85;;;;;;;;;;6249736;28;20054;-95
2023/11/04 17:16:13;;;;;;;7.13;3.08;;;;;;;;;;6243861;28;20434;-95
2023/11/04 17:19:15;;;;;;;6.43;2.85;;;;;;;;;;6248847;28;20064;-95
2023/11/04 17:22:18;;;;;;;4.93;2.97;;;;;;;;;;6232104;28;20050;-95
2023/11/04 17:25:20;;;;;;;6.75;3.33;;;;;;;;;;6231057;28;20054;-95
2023/11/04 17:28:25;;;;;;;4.50;3.00;;;;;;;;;;6243805;28;20230;-94
2023/11/04 17:31:27;;;;;;;7.07;4.03;;;;;;;;;;6227597;28;20109;-95
2023/11/04 17:34:29;;;;;;;8.60;4.28;;;;;;;;;;6247702;28;20094;-95
2023/11/04 17:37:30;;;;;;;6.43;3.60;;;;;;;;;;6248995;28;20129;-96
2023/11/04 17:40:32;;;;;;;5.35;3.75;;;;;;;;;;6247825;28;20091;-96
2023/11/04 17:43:36;;;;;;;7.03;3.67;;;;;;;;;;6247454;28;20049;-96
2023/11/04 17:46:39;;;;;;;6.47;3.60;;;;;;;;;;6229333;28;20053;-96
2023/11/04 17:49:41;;;;;;;7.70;4.10;;;;;;;;;;6248064;28;20257;-96
2023/11/04 17:52:43;;;;;;;5.07;3.97;;;;;;;;;;6245261;28;20049;-96
2023/11/04 17:55:45;;;;;;;9.02;4.25;;;;;;;;;;6249723;28;20334;-95
2023/11/04 17:58:51;;;;;;;7.90;4.20;;;;;;;;;;6249240;28;20347;-96
2023/11/04 18:01:54;;;;;;;6.00;3.95;;;;;;;;;;6229942;28;20364;-95
2023/11/04 18:04:56;;;;;;;6.72;4.38;;;;;;;;;;6249309;28;20057;-95
2023/11/04 18:07:59;;;;;;;6.32;4.40;;;;;;;;;;6229635;28;20072;-96
2023/11/04 18:11:01;;;;;;;8.93;4.68;;;;;;;;;;6245106;28;20061;-95
2023/11/04 18:14:07;;;;;;;8.77;4.80;;;;;;;;;;6248033;28;20058;-95
2023/11/04 18:17:10;;;;;;;7.65;4.75;;;;;;;;;;6246591;28;20073;-96
2023/11/04 18:20:13;;;;;;;7.82;4.85;;;;;;;;;;6247235;28;20080;-96
2023/11/04 18:23:15;;;;;;;9.30;5.10;;;;;;;;;;6244873;28;20157;-96
2023/11/04 18:26:17;;;;;;;8.35;5.40;;;;;;;;;;6248574;28;20249;-95
2023/11/04 18:29:20;;;;;;;8.70;4.85;;;;;;;;;;6245001;28;20133;-96
2023/11/04 18:32:22;;;;;;;10.60;5.40;;;;;;;;;;6250701;28;20129;-96
2023/11/04 18:35:25;;;;;;;8.27;5.32;;;;;;;;;;6243547;28;20056;-96
2023/11/04 18:38:27;;;;;;;11.27;5.60;;;;;;;;;;6249154;28;20106;-96
2023/11/04 18:41:29;;;;;;;6.70;4.95;;;;;;;;;;6232502;28;20109;-96
2023/11/04 18:44:33;;;;;;;9.90;6.00;;;;;;;;;;6235096;28;20064;-96
2023/11/04 18:47:38;;;;;;;9.25;5.63;;;;;;;;;;6242508;28;20064;-96
2023/11/04 18:50:40;;;;;;;11.20;6.45;;;;;;;;;;6245505;28;20046;-96
2023/11/04 18:53:43;;;;;;;10.32;5.90;;;;;;;;;;6245503;28;20057;-96
2023/11/04 18:56:45;;;;;;;7.70;5.53;;;;;;;;;;6247921;28;20081;-96
2023/11/04 18:59:52;;;;;;;10.27;6.25;;;;;;;;;;6246268;28;20099;-96
2023/11/04 19:02:55;;;;;;;10.60;6.63;;;;;;;;;;6227450;28;20049;-96
2023/11/04 19:05:57;;;;;;;10.43;6.22;;;;;;;;;;6231738;28;20061;-96
2023/11/04 19:08:59;;;;;;;12.25;6.93;;;;;;;;;;6246897;28;20049;-96
2023/11/04 19:12:01;;;;;;;11.00;7.05;;;;;;;;;;6232054;28;20060;-96
2023/11/04 19:15:06;;;;;;;11.13;6.88;;;;;;;;;;6247061;28;20049;-96
2023/11/04 19:18:09;;;;;;;10.55;6.75;;;;;;;;;;6249239;28;20425;-95
2023/11/04 19:21:13;;;;;;;7.75;5.90;;;;;;;;;;6246498;28;20060;-96
2023/11/04 19:24:16;;;;;;;7.57;5.88;;;;;;;;;;6245796;28;20568;-96
2023/11/04 19:27:18;;;;;;;8.50;6.40;;;;;;;;;;6240874;28;20046;-95
2023/11/04 19:30:27;;;;;;;11.18;6.93;;;;;;;;;;6232279;28;20049;-96
2023/11/04 19:33:34;;;;;;;8.38;6.63;;;;;;;;;;6247043;28;20054;-95
2023/11/04 19:36:37;;;;;;;10.10;7.70;;;;;;;;;;6245635;28;20068;-96
2023/11/04 19:39:40;;;;;;;10.30;6.40;;;;;;;;;;6243237;28;20269;-96
2023/11/04 19:42:42;;;;;;;8.90;6.53;;;;;;;;;;6240435;28;20049;-96
2023/11/04 19:45:47;;;;;;;8.40;6.18;;;;;;;;;;6244427;28;20221;-96
2023/11/04 19:48:52;;;;;;;9.57;6.10;;;;;;;;;;6225414;28;20068;-96
2023/11/04 19:51:54;;;;;;;10.37;5.83;;;;;;;;;;6244003;28;20284;-96
2023/11/04 19:58:15;;;;;;;8.80;5.88;;;;;;;;;;6232148;28;20061;-96
2023/11/04 20:01:19;;;;;;;7.65;4.93;;;;;;;;;;6251155;28;20371;-96
2023/11/04 20:04:21;;;;;;;7.18;4.65;;;;;;;;;;6245191;28;20062;-96
2023/11/04 20:07:23;;;;;;;7.22;4.55;;;;;;;;;;6246030;28;20101;-96
2023/11/04 20:10:26;;;;;;;6.22;4.05;;;;;;;;;;6229546;28;20049;-96
2023/11/04 20:13:28;;;;;;;5.32;3.95;;;;;;;;;;6247245;28;20064;-96
2023/11/04 20:16:32;;;;;;;6.63;3.40;;;;;;;;;;6230008;28;20053;-96
2023/11/04 20:19:34;;;;;;;5.57;3.85;;;;;;;;;;6250520;28;20045;-96
2023/11/04 20:22:37;;;;;;;5.80;3.20;;;;;;;;;;6234081;28;20121;-96
2023/11/04 20:25:40;;;;;;;9.80;3.30;;;;;;;;;;6253207;28;20069;-96
2023/11/04 20:28:42;;;;;;;4.03;2.88;;;;;;;;;;6247089;28;20057;-96
2023/11/04 20:31:48;;;;;;;7.32;3.08;;;;;;;;;;6230448;28;20045;-92
2023/11/04 20:34:50;;;;;;;4.75;3.20;;;;;;;;;;6227196;28;20056;-96
2023/11/04 20:37:55;;;;;;;8.55;2.95;;;;;;;;;;6237821;28;20273;-96
2023/11/04 20:41:01;;;;;;;5.05;2.95;;;;;;;;;;6234763;28;20124;-96
2023/11/04 20:44:13;;;;;;;7.32;3.20;;;;;;;;;;6253171;28;20128;-97
2023/11/04 20:47:18;;;;;;;7.10;3.13;;;;;;;;;;6241364;28;20124;-96
2023/11/04 20:50:20;;;;;;;6.07;3.40;;;;;;;;;;6235327;28;20045;-96
2023/11/04 20:53:24;;;;;;;6.22;3.75;;;;;;;;;;6250665;28;20056;-96
2023/11/04 20:56:28;;;;;;;4.78;3.30;;;;;;;;;;6223681;28;20069;-96
2023/11/04 20:59:31;;;;;;;8.53;4.33;;;;;;;;;;6241540;28;20054;-97
2023/11/04 21:06:05;;;;;;;7.25;4.15;;;;;;;;;;6214842;28;20054;-96
2023/11/04 21:15:50;;;;;;;6.47;4.15;;;;;;;;;;6147927;28;20247;-96
2023/11/04 21:22:15;;;;;;;7.20;4.05;;;;;;;;;;6136822;28;20119;-96
2023/11/04 21:25:18;;;;;;;5.88;3.55;;;;;;;;;;6179317;28;20057;-96
2023/11/04 21:28:20;;;;;;;5.90;3.50;;;;;;;;;;6174701;28;20228;-96
2023/11/04 21:31:23;;;;;;;6.43;3.80;;;;;;;;;;6175121;28;20448;-96
2023/11/04 21:34:28;;;;;;;4.35;2.95;;;;;;;;;;6173657;28;20123;-96
2023/11/04 21:37:32;;;;;;;5.15;2.70;;;;;;;;;;6150532;28;20048;-96
2023/11/04 21:40:54;;;;;;;4.47;3.00;;;;;;;;;;6159671;28;20043;-96
2023/11/04 21:47:25;;;;;;;8.00;3.72;;;;;;;;;;6203728;28;20052;-96